createdAt,value
2022-09-24T00:01:26.255Z,17.18
2022-09-24T00:03:54.963Z,17.13
2022-09-24T00:06:22.375Z,17.18
2022-09-24T00:08:50.529Z,17.13
2022-09-24T00:11:21.014Z,17.14
2022-09-24T00:13:48.593Z,17.16
2022-09-24T00:16:16.549Z,17.25
2022-09-24T00:18:44.362Z,17.15
2022-09-24T00:21:14.367Z,17.23
2022-09-24T00:23:41.513Z,17.18
2022-09-24T00:26:32.377Z,17.30
2022-09-24T00:28:59.597Z,17.34
2022-09-24T00:31:27.038Z,17.26
2022-09-24T00:33:54.349Z,17.06
2022-09-24T00:36:21.885Z,17.24
2022-09-24T00:38:53.438Z,17.06
2022-09-24T00:41:20.998Z,16.99
2022-09-24T00:43:48.590Z,16.92
2022-09-24T00:46:18.852Z,16.90
2022-09-24T00:48:46.635Z,17.03
2022-09-24T00:51:14.896Z,16.90
2022-09-24T00:53:42.099Z,16.90
2022-09-24T00:56:10.434Z,16.97
2022-09-24T00:58:37.833Z,16.85
2022-09-24T01:01:05.550Z,16.88
2022-09-24T01:03:33.007Z,16.76
2022-09-24T01:06:00.411Z,16.87
2022-09-24T01:08:27.636Z,16.85
2022-09-24T01:11:03.755Z,16.88
2022-09-24T01:13:49.644Z,16.75
2022-09-24T01:16:24.493Z,16.74
2022-09-24T01:19:10.189Z,16.66
2022-09-24T01:21:56.333Z,16.72
2022-09-24T01:24:26.493Z,16.68
2022-09-24T01:27:12.051Z,16.64
2022-09-24T01:29:52.423Z,16.56
2022-09-24T01:32:22.822Z,16.67
2022-09-24T01:34:55.837Z,16.64
2022-09-24T01:37:23.206Z,16.75
2022-09-24T01:39:51.366Z,16.66
2022-09-24T01:42:18.726Z,16.74
2022-09-24T01:44:45.905Z,16.89
2022-09-24T01:47:15.225Z,16.81
2022-09-24T01:49:42.647Z,16.65
2022-09-24T01:52:10.723Z,16.49
2022-09-24T01:54:39.387Z,16.60
2022-09-24T01:57:07.090Z,16.58
2022-09-24T02:00:03.854Z,16.47
2022-09-24T02:02:39.707Z,16.64
2022-09-24T02:05:08.504Z,16.55
2022-09-24T02:07:36.381Z,16.38
2022-09-24T02:10:03.930Z,16.41
2022-09-24T02:12:32.927Z,16.65
2022-09-24T02:15:11.219Z,16.71
2022-09-24T02:17:39.618Z,16.70
2022-09-24T02:20:08.849Z,16.66
2022-09-24T02:22:35.962Z,16.70
2022-09-24T02:25:04.547Z,16.74
2022-09-24T02:27:31.689Z,16.68
2022-09-24T02:29:59.090Z,16.49
2022-09-24T02:32:27.010Z,16.51
2022-09-24T02:34:55.356Z,16.65
2022-09-24T02:37:23.213Z,16.78
2022-09-24T02:39:50.711Z,16.86
2022-09-24T02:42:18.192Z,16.88
2022-09-24T02:44:45.324Z,16.89
2022-09-24T02:47:12.968Z,16.99
2022-09-24T02:49:40.279Z,16.95
2022-09-24T02:52:07.512Z,16.96
2022-09-24T02:54:34.915Z,16.88
2022-09-24T02:57:02.063Z,16.86
2022-09-24T02:59:29.199Z,16.93
2022-09-24T03:01:56.692Z,16.84
2022-09-24T03:04:24.161Z,16.94
2022-09-24T03:06:51.288Z,16.93
2022-09-24T03:09:18.748Z,16.96
2022-09-24T03:11:47.365Z,16.95
2022-09-24T03:14:14.489Z,16.92
2022-09-24T03:16:41.929Z,16.78
2022-09-24T03:19:09.093Z,16.91
2022-09-24T03:21:36.610Z,16.98
2022-09-24T03:24:04.192Z,16.88
2022-09-24T03:26:31.846Z,16.69
2022-09-24T03:28:58.999Z,16.75
2022-09-24T03:31:26.475Z,16.71
2022-09-24T03:33:53.733Z,16.85
2022-09-24T03:36:22.805Z,16.82
2022-09-24T03:38:51.388Z,16.78
2022-09-24T03:41:18.599Z,16.76
2022-09-24T03:43:45.725Z,16.85
2022-09-24T03:46:13.392Z,16.88
2022-09-24T03:48:42.990Z,16.85
2022-09-24T03:51:11.265Z,16.92
2022-09-24T03:53:38.731Z,16.74
2022-09-24T03:56:07.538Z,16.65
2022-09-24T03:58:36.626Z,16.71
2022-09-24T04:01:04.452Z,16.68
2022-09-24T04:03:32.052Z,16.57
2022-09-24T04:05:59.167Z,16.49
2022-09-24T04:08:26.293Z,16.54
2022-09-24T04:10:53.739Z,16.56
2022-09-24T04:13:21.209Z,16.57
2022-09-24T04:15:50.394Z,16.63
2022-09-24T04:18:18.012Z,16.77
2022-09-24T04:20:45.315Z,16.83
2022-09-24T04:23:12.468Z,16.70
2022-09-24T04:25:42.895Z,16.71
2022-09-24T04:28:10.160Z,16.51
2022-09-24T04:30:38.350Z,16.63
2022-09-24T04:33:07.491Z,16.69
2022-09-24T04:35:37.158Z,16.73
2022-09-24T04:38:04.688Z,16.82
2022-09-24T04:40:32.245Z,16.50
2022-09-24T04:42:59.598Z,16.58
2022-09-24T04:45:26.911Z,16.64
2022-09-24T04:47:57.622Z,16.53
2022-09-24T04:50:29.156Z,16.66
2022-09-24T04:52:56.589Z,16.66
2022-09-24T04:55:23.952Z,16.73
2022-09-24T04:57:51.283Z,16.85
2022-09-24T05:00:19.752Z,16.81
2022-09-24T05:02:47.140Z,16.90
2022-09-24T05:05:14.445Z,16.91
2022-09-24T05:07:42.661Z,17.06
2022-09-24T05:10:09.817Z,17.11
2022-09-24T05:12:36.968Z,17.32
2022-09-24T05:15:04.573Z,17.36
2022-09-24T05:17:39.904Z,17.46
2022-09-24T05:20:11.247Z,17.42
2022-09-24T05:22:42.015Z,17.36
2022-09-24T05:25:09.546Z,17.42
2022-09-24T05:27:36.665Z,17.42
2022-09-24T05:30:04.156Z,17.77
2022-09-24T05:32:34.125Z,16.92
2022-09-24T05:35:01.301Z,17.56
2022-09-24T05:37:28.459Z,17.65
2022-09-24T05:39:57.779Z,17.56
2022-09-24T05:42:24.936Z,17.65
2022-09-24T05:44:52.477Z,16.35
2022-09-24T05:47:19.959Z,17.34
2022-09-24T05:49:47.107Z,17.69
2022-09-24T05:52:14.296Z,17.60
2022-09-24T05:54:41.713Z,17.76
2022-09-24T05:57:08.856Z,18.18
2022-09-24T05:59:36.002Z,16.64
2022-09-24T06:02:03.454Z,17.57
2022-09-24T06:04:31.172Z,17.59
2022-09-24T06:06:58.338Z,17.70
2022-09-24T06:09:25.470Z,17.90
2022-09-24T06:11:54.105Z,17.93
2022-09-24T06:14:21.318Z,18.19
2022-09-24T06:16:48.436Z,17.75
2022-09-24T06:19:15.880Z,18.23
2022-09-24T06:21:43.046Z,17.83
2022-09-24T06:24:10.193Z,17.79
2022-09-24T06:26:37.888Z,17.93
2022-09-24T06:29:05.510Z,18.16
2022-09-24T06:31:33.008Z,17.92
2022-09-24T06:34:02.660Z,18.60
2022-09-24T06:36:29.806Z,17.56
2022-09-24T06:38:58.615Z,18.33
2022-09-24T06:41:26.014Z,17.66
2022-09-24T06:43:54.688Z,16.79
2022-09-24T06:46:23.326Z,18.22
2022-09-24T06:48:50.875Z,17.02
2022-09-24T06:51:18.030Z,17.45
2022-09-24T06:53:45.163Z,18.38
2022-09-24T06:56:12.753Z,18.24
2022-09-24T06:58:39.898Z,17.34
2022-09-24T07:01:07.147Z,17.62
2022-09-24T07:03:35.008Z,17.99
2022-09-24T07:06:03.556Z,18.52
2022-09-24T07:08:30.774Z,18.22
2022-09-24T07:10:58.258Z,18.40
2022-09-24T07:13:25.385Z,17.66
2022-09-24T07:15:52.954Z,17.25
2022-09-24T07:18:20.598Z,17.38
2022-09-24T07:20:54.142Z,16.23
2022-09-24T07:23:21.725Z,17.13
2022-09-24T07:25:49.126Z,17.27
2022-09-24T07:28:17.373Z,17.18
2022-09-24T07:30:44.807Z,17.05
2022-09-24T07:33:11.993Z,17.34
2022-09-24T07:35:39.289Z,17.12
2022-09-24T07:38:07.788Z,17.74
2022-09-24T07:40:34.977Z,17.36
2022-09-24T07:43:03.500Z,17.33
2022-09-24T07:45:32.392Z,18.07
2022-09-24T07:48:00.262Z,18.67
2022-09-24T07:50:28.147Z,18.63
2022-09-24T07:52:55.621Z,18.71
2022-09-24T07:55:23.348Z,18.27
2022-09-24T07:57:51.864Z,18.38
2022-09-24T08:00:19.630Z,18.45
2022-09-24T08:02:47.678Z,19.20
2022-09-24T08:05:15.410Z,19.42
2022-09-24T08:07:42.858Z,19.47
2022-09-24T08:10:10.447Z,19.92
2022-09-24T08:12:37.707Z,19.36
2022-09-24T08:15:05.217Z,19.48
2022-09-24T08:17:32.820Z,18.80
2022-09-24T08:19:59.933Z,19.25
2022-09-24T08:22:27.089Z,19.04
2022-09-24T08:24:54.894Z,18.64
2022-09-24T08:27:23.216Z,17.64
2022-09-24T08:29:50.407Z,18.48
2022-09-24T08:32:18.305Z,18.50
2022-09-24T08:34:45.450Z,18.92
2022-09-24T08:37:13.859Z,17.64
2022-09-24T08:39:41.385Z,19.24
2022-09-24T08:42:27.301Z,19.12
2022-09-24T08:45:13.582Z,18.60
2022-09-24T08:47:46.112Z,18.78
2022-09-24T08:50:21.132Z,19.45
2022-09-24T08:53:07.219Z,19.65
2022-09-24T08:55:54.860Z,19.85
2022-09-24T08:58:24.898Z,20.15
2022-09-24T09:00:55.657Z,19.79
2022-09-24T09:03:26.345Z,20.77
2022-09-24T09:06:03.973Z,20.30
2022-09-24T09:09:01.769Z,20.73
2022-09-24T09:11:28.607Z,20.86
2022-09-24T09:13:58.055Z,19.73
2022-09-24T09:16:27.135Z,20.44
2022-09-24T09:18:56.196Z,21.05
2022-09-24T09:21:42.185Z,20.64
2022-09-24T09:24:15.956Z,21.34
2022-09-24T09:26:43.763Z,20.58
2022-09-24T09:29:11.366Z,21.45
2022-09-24T09:31:57.138Z,20.52
2022-09-24T09:34:43.459Z,19.98
2022-09-24T09:37:25.900Z,19.38
2022-09-24T09:40:02.696Z,19.49
2022-09-24T09:42:32.274Z,20.22
2022-09-24T09:45:00.991Z,19.84
2022-09-24T09:47:36.063Z,20.59
2022-09-24T09:50:05.939Z,21.32
2022-09-24T09:52:36.908Z,20.45
2022-09-24T09:55:05.308Z,20.70
2022-09-24T09:57:32.389Z,20.22
2022-09-24T09:59:59.515Z,20.06
2022-09-24T10:02:31.247Z,20.99
2022-09-24T10:04:59.176Z,20.88
2022-09-24T10:07:26.358Z,20.63
2022-09-24T10:10:01.417Z,21.53
2022-09-24T10:12:29.071Z,21.62
2022-09-24T10:15:00.333Z,20.81
2022-09-24T10:17:28.812Z,21.23
2022-09-24T10:19:56.227Z,21.64
2022-09-24T10:22:26.796Z,22.08
2022-09-24T10:24:54.604Z,22.06
2022-09-24T10:27:30.906Z,21.90
2022-09-24T10:30:16.770Z,21.98
2022-09-24T10:32:44.216Z,22.16
2022-09-24T10:35:21.845Z,22.51
2022-09-24T10:37:53.439Z,21.61
2022-09-24T10:40:28.331Z,22.38
2022-09-24T10:42:57.277Z,22.95
2022-09-24T10:45:26.761Z,22.94
2022-09-24T10:47:57.127Z,22.77
2022-09-24T10:50:30.873Z,22.52
2022-09-24T10:53:00.986Z,22.58
2022-09-24T10:55:47.387Z,22.86
2022-09-24T10:58:23.116Z,22.67
2022-09-24T11:00:58.088Z,22.74
2022-09-24T11:03:43.109Z,22.42
2022-09-24T11:06:14.624Z,22.47
2022-09-24T11:08:47.359Z,22.89
2022-09-24T11:11:20.946Z,23.25
2022-09-24T11:14:06.666Z,22.86
2022-09-24T11:16:39.058Z,22.49
2022-09-24T11:19:06.346Z,22.81
2022-09-24T11:21:52.012Z,23.35
2022-09-24T11:24:19.118Z,23.64
2022-09-24T11:26:49.687Z,23.92
2022-09-24T11:29:22.690Z,23.23
2022-09-24T11:31:56.775Z,23.50
2022-09-24T11:34:37.829Z,22.80
2022-09-24T11:37:17.379Z,22.94
2022-09-24T11:39:48.787Z,22.17
2022-09-24T11:42:29.725Z,23.11
2022-09-24T11:45:06.871Z,23.39
2022-09-24T11:47:34.269Z,23.23
2022-09-24T11:50:14.205Z,23.19
2022-09-24T11:52:48.407Z,23.59
2022-09-24T11:55:15.522Z,22.94
2022-09-24T11:57:44.611Z,23.76
2022-09-24T12:00:12.040Z,23.53
2022-09-24T12:02:47.950Z,22.94
2022-09-24T12:05:19.110Z,23.76
2022-09-24T12:07:51.060Z,23.54
2022-09-24T12:10:25.099Z,22.80
2022-09-24T12:12:53.630Z,22.98
2022-09-24T12:15:24.850Z,23.24
2022-09-24T12:17:57.863Z,23.52
2022-09-24T12:20:29.461Z,24.08
2022-09-24T12:23:00.222Z,23.81
2022-09-24T12:25:29.590Z,23.44
2022-09-24T12:27:56.721Z,23.30
2022-09-24T12:30:48.892Z,23.95
2022-09-24T12:33:25.705Z,23.18
2022-09-24T12:35:55.849Z,23.66
2022-09-24T12:38:34.143Z,23.58
2022-09-24T12:41:20.407Z,22.55
2022-09-24T12:44:04.219Z,23.25
2022-09-24T12:46:45.091Z,23.08
2022-09-24T12:49:15.647Z,22.89
2022-09-24T12:51:42.777Z,23.36
2022-09-24T12:54:30.780Z,23.35
2022-09-24T12:57:13.434Z,23.71
2022-09-24T12:59:55.863Z,23.14
2022-09-24T13:02:24.575Z,23.23
2022-09-24T13:05:00.909Z,22.78
2022-09-24T13:07:38.170Z,23.70
2022-09-24T13:10:12.181Z,23.53
2022-09-24T13:12:42.636Z,23.50
2022-09-24T13:15:29.204Z,23.24
2022-09-24T13:18:00.322Z,22.89
2022-09-24T13:20:27.451Z,22.51
2022-09-24T13:22:56.017Z,22.94
2022-09-24T13:25:23.944Z,23.29
2022-09-24T13:27:58.693Z,23.37
2022-09-24T13:30:29.163Z,22.50
2022-09-24T13:32:58.767Z,22.55
2022-09-24T13:35:29.217Z,22.92
2022-09-24T13:38:07.178Z,22.91
2022-09-24T13:40:37.060Z,23.30
2022-09-24T13:43:04.924Z,22.99
2022-09-24T13:45:32.234Z,23.39
2022-09-24T13:48:01.216Z,24.11
2022-09-24T13:50:35.831Z,23.23
2022-09-24T13:53:06.522Z,23.78
2022-09-24T13:55:34.004Z,23.56
2022-09-24T13:58:01.188Z,23.51
2022-09-24T14:00:29.261Z,24.04
2022-09-24T14:03:01.243Z,24.01
2022-09-24T14:05:29.250Z,23.36
2022-09-24T14:08:04.731Z,23.59
2022-09-24T14:10:32.241Z,23.23
2022-09-24T14:13:05.877Z,23.96
2022-09-24T14:15:33.113Z,23.33
2022-09-24T14:18:00.780Z,22.26
2022-09-24T14:20:32.958Z,22.47
2022-09-24T14:23:00.347Z,22.88
2022-09-24T14:25:28.743Z,22.55
2022-09-24T14:27:55.958Z,22.70
2022-09-24T14:30:24.136Z,22.97
2022-09-24T14:32:57.017Z,23.38
2022-09-24T14:35:30.040Z,23.31
2022-09-24T14:38:09.565Z,22.72
2022-09-24T14:40:56.530Z,22.95
2022-09-24T14:43:31.179Z,23.42
2022-09-24T14:46:07.007Z,23.44
2022-09-24T14:48:34.431Z,23.91
2022-09-24T14:51:02.109Z,23.69
2022-09-24T14:53:29.752Z,23.47
2022-09-24T14:55:57.520Z,22.96
2022-09-24T14:58:34.929Z,23.66
2022-09-24T15:01:15.710Z,23.61
2022-09-24T15:03:50.757Z,23.67
2022-09-24T15:06:23.975Z,23.69
2022-09-24T15:09:11.675Z,23.23
2022-09-24T15:11:43.550Z,23.87
2022-09-24T15:14:14.762Z,23.09
2022-09-24T15:16:42.130Z,23.23
2022-09-24T15:19:27.050Z,22.68
2022-09-24T15:21:57.480Z,23.18
2022-09-24T15:24:25.196Z,23.02
2022-09-24T15:27:03.145Z,23.14
2022-09-24T15:29:30.609Z,23.14
2022-09-24T15:31:58.134Z,23.44
2022-09-24T15:34:25.617Z,23.60
2022-09-24T15:37:15.293Z,23.24
2022-09-24T15:39:48.566Z,22.77
2022-09-24T15:42:19.698Z,23.34
2022-09-24T15:44:47.575Z,22.83
2022-09-24T15:47:14.763Z,23.46
2022-09-24T15:49:42.480Z,22.99
2022-09-24T15:52:13.156Z,23.60
2022-09-24T15:54:40.542Z,23.47
2022-09-24T15:57:09.514Z,23.48
2022-09-24T15:59:36.656Z,23.62
2022-09-24T16:02:04.326Z,23.49
2022-09-24T16:04:31.792Z,22.88
2022-09-24T16:06:59.103Z,23.37
2022-09-24T16:09:26.231Z,22.54
2022-09-24T16:11:55.403Z,23.22
2022-09-24T16:14:22.555Z,23.38
2022-09-24T16:16:49.704Z,23.73
2022-09-24T16:19:17.121Z,23.13
2022-09-24T16:21:44.265Z,23.33
2022-09-24T16:24:11.400Z,22.85
2022-09-24T16:26:38.830Z,22.86
2022-09-24T16:29:06.358Z,22.94
2022-09-24T16:31:33.603Z,23.62
2022-09-24T16:34:01.039Z,24.00
2022-09-24T16:36:28.259Z,23.37
2022-09-24T16:38:55.458Z,23.13
2022-09-24T16:41:22.903Z,23.58
2022-09-24T16:43:50.062Z,23.79
2022-09-24T16:46:20.672Z,23.72
2022-09-24T16:48:51.398Z,23.03
2022-09-24T16:51:18.859Z,23.78
2022-09-24T16:53:49.920Z,23.49
2022-09-24T16:56:17.760Z,23.43
2022-09-24T16:58:45.475Z,23.68
2022-09-24T17:01:16.629Z,23.81
2022-09-24T17:03:44.222Z,23.77
2022-09-24T17:06:18.498Z,23.45
2022-09-24T17:09:04.789Z,23.84
2022-09-24T17:11:31.956Z,23.67
2022-09-24T17:13:59.824Z,23.76
2022-09-24T17:16:27.287Z,23.79
2022-09-24T17:18:54.588Z,23.75
2022-09-24T17:21:22.368Z,23.75
2022-09-24T17:23:49.723Z,23.81
2022-09-24T17:26:17.919Z,23.88
2022-09-24T17:28:46.073Z,23.75
2022-09-24T17:31:15.150Z,23.98
2022-09-24T17:33:43.974Z,23.93
2022-09-24T17:36:12.529Z,23.65
2022-09-24T17:38:39.831Z,23.58
2022-09-24T17:41:07.926Z,23.73
2022-09-24T17:43:35.684Z,23.58
2022-09-24T17:46:04.054Z,23.66
2022-09-24T17:48:32.364Z,23.17
2022-09-24T17:51:00.247Z,23.40
2022-09-24T17:53:29.894Z,23.48
2022-09-24T17:55:57.041Z,23.26
2022-09-24T17:58:24.776Z,23.31
2022-09-24T18:00:52.811Z,23.25
2022-09-24T18:03:20.327Z,23.32
2022-09-24T18:05:47.451Z,23.41
2022-09-24T18:08:14.596Z,23.15
2022-09-24T18:10:42.037Z,22.90
2022-09-24T18:13:09.804Z,22.55
2022-09-24T18:15:37.179Z,23.16
2022-09-24T18:18:04.652Z,23.36
2022-09-24T18:20:31.880Z,22.90
2022-09-24T18:22:59.028Z,22.83
2022-09-24T18:25:27.560Z,23.12
2022-09-24T18:27:55.467Z,22.82
2022-09-24T18:30:23.197Z,23.41
2022-09-24T18:32:50.650Z,23.18
2022-09-24T18:35:18.001Z,22.98
2022-09-24T18:37:45.136Z,23.33
2022-09-24T18:40:12.613Z,22.59
2022-09-24T18:42:39.815Z,23.23
2022-09-24T18:45:07.265Z,23.37
2022-09-24T18:47:35.900Z,23.45
2022-09-24T18:50:03.036Z,23.31
2022-09-24T18:52:30.313Z,23.06
2022-09-24T18:54:57.810Z,22.98
2022-09-24T18:57:24.972Z,22.70
2022-09-24T18:59:52.172Z,23.44
2022-09-24T19:02:23.821Z,23.36
2022-09-24T19:04:51.091Z,23.05
2022-09-24T19:07:18.262Z,22.71
2022-09-24T19:09:46.700Z,23.24
2022-09-24T19:12:13.905Z,23.20
2022-09-24T19:14:41.746Z,23.24
2022-09-24T19:17:09.163Z,22.88
2022-09-24T19:19:36.761Z,22.90
2022-09-24T19:22:03.907Z,23.34
2022-09-24T19:24:31.313Z,23.15
2022-09-24T19:26:58.475Z,22.64
2022-09-24T19:29:25.700Z,22.67
2022-09-24T19:31:53.409Z,23.00
2022-09-24T19:34:20.762Z,22.54
2022-09-24T19:36:47.914Z,22.57
2022-09-24T19:39:15.856Z,22.81
2022-09-24T19:41:43.189Z,22.85
2022-09-24T19:44:11.392Z,22.74
2022-09-24T19:46:39.473Z,22.85
2022-09-24T19:49:07.042Z,22.74
2022-09-24T19:51:34.340Z,22.72
2022-09-24T19:54:03.160Z,22.92
2022-09-24T19:56:31.933Z,22.65
2022-09-24T19:58:59.642Z,22.64
2022-09-24T20:01:31.213Z,22.68
2022-09-24T20:03:59.539Z,22.48
2022-09-24T20:06:28.921Z,22.28
2022-09-24T20:08:57.206Z,22.48
2022-09-24T20:11:25.677Z,22.77
2022-09-24T20:13:53.868Z,22.69
2022-09-24T20:16:21.845Z,22.58
2022-09-24T20:18:50.009Z,22.47
2022-09-24T20:21:17.843Z,22.53
2022-09-24T20:23:45.516Z,22.15
2022-09-24T20:26:32.087Z,22.28
2022-09-24T20:28:59.316Z,22.23
2022-09-24T20:31:26.811Z,22.39
2022-09-24T20:33:53.994Z,22.74
2022-09-24T20:36:24.447Z,22.55
2022-09-24T20:38:52.925Z,22.85
2022-09-24T20:41:21.230Z,22.62
2022-09-24T20:43:48.370Z,22.70
2022-09-24T20:46:17.418Z,22.43
2022-09-24T20:48:44.804Z,22.67
2022-09-24T20:51:12.818Z,22.43
2022-09-24T20:53:40.422Z,22.66
2022-09-24T20:56:07.565Z,22.45
2022-09-24T20:58:35.070Z,22.52
2022-09-24T21:01:02.566Z,22.24
2022-09-24T21:03:44.042Z,22.41
2022-09-24T21:06:12.615Z,22.69
2022-09-24T21:08:41.047Z,22.48
2022-09-24T21:11:09.770Z,22.59
2022-09-24T21:13:41.109Z,22.79
2022-09-24T21:16:09.554Z,22.70
2022-09-24T21:18:40.407Z,22.45
2022-09-24T21:21:08.960Z,22.42
2022-09-24T21:23:38.096Z,22.63
2022-09-24T21:26:16.048Z,22.56
2022-09-24T21:28:44.195Z,22.60
2022-09-24T21:31:11.401Z,22.11
2022-09-24T21:33:38.766Z,21.79
2022-09-24T21:36:06.584Z,21.98
2022-09-24T21:38:33.927Z,21.87
2022-09-24T21:41:04.306Z,22.16
2022-09-24T21:43:34.794Z,22.27
2022-09-24T21:46:05.060Z,21.91
2022-09-24T21:48:32.776Z,21.82
2022-09-24T21:51:06.143Z,22.16
2022-09-24T21:53:33.690Z,22.17
2022-09-24T21:56:01.207Z,22.37
2022-09-24T21:58:29.780Z,22.19
2022-09-24T22:01:03.158Z,22.17
2022-09-24T22:03:32.273Z,22.36
2022-09-24T22:06:03.218Z,21.78
2022-09-24T22:08:31.871Z,21.72
2022-09-24T22:11:00.223Z,21.92
2022-09-24T22:13:27.749Z,21.86
2022-09-24T22:15:56.649Z,21.44
2022-09-24T22:18:24.087Z,21.55
2022-09-24T22:20:51.238Z,21.75
2022-09-24T22:23:18.485Z,21.78
2022-09-24T22:25:46.344Z,21.73
2022-09-24T22:28:16.377Z,22.11
2022-09-24T22:30:47.491Z,22.13
2022-09-24T22:33:34.639Z,22.23
2022-09-24T22:36:03.445Z,22.08
2022-09-24T22:38:31.226Z,22.02
2022-09-24T22:41:04.864Z,22.00
2022-09-24T22:43:32.423Z,22.17
2022-09-24T22:46:00.120Z,22.18
2022-09-24T22:48:27.693Z,22.16
2022-09-24T22:50:55.201Z,22.08
2022-09-24T22:53:22.499Z,22.15
2022-09-24T22:55:52.606Z,22.10
2022-09-24T22:58:20.303Z,22.07
2022-09-24T23:00:47.527Z,22.06
2022-09-24T23:03:14.717Z,22.10
2022-09-24T23:05:42.523Z,22.11
2022-09-24T23:08:09.669Z,21.95
2022-09-24T23:10:36.858Z,22.04
2022-09-24T23:13:04.309Z,22.02
2022-09-24T23:15:31.448Z,21.99
2022-09-24T23:17:58.593Z,22.06
2022-09-24T23:20:26.016Z,22.07
2022-09-24T23:22:53.144Z,22.09
2022-09-24T23:25:20.278Z,22.06
2022-09-24T23:27:47.702Z,21.98
2022-09-24T23:30:14.892Z,22.01
2022-09-24T23:32:42.025Z,21.87
2022-09-24T23:35:09.458Z,21.88
2022-09-24T23:37:36.632Z,21.85
2022-09-24T23:40:03.898Z,21.87
2022-09-24T23:42:31.411Z,21.76
2022-09-24T23:44:58.540Z,21.84
2022-09-24T23:47:25.729Z,21.75
2022-09-24T23:49:53.178Z,21.68
2022-09-24T23:52:20.295Z,21.71
2022-09-24T23:54:47.693Z,21.57
2022-09-24T23:57:15.547Z,21.70
2022-09-24T23:59:42.711Z,21.64
